createdAt,value
2023-03-05T00:00:54.717Z,1.15
2023-03-05T00:03:21.576Z,1.50
2023-03-05T00:05:48.380Z,1.00
2023-03-05T00:08:15.436Z,0.98
2023-03-05T00:10:42.078Z,0.97
2023-03-05T00:13:08.910Z,1.48
2023-03-05T00:15:41.332Z,0.85
2023-03-05T00:18:08.129Z,1.15
2023-03-05T00:20:35.286Z,1.38
2023-03-05T00:23:02.226Z,0.90
2023-03-05T00:25:28.838Z,1.30
2023-03-05T00:27:55.774Z,0.90
2023-03-05T00:30:22.548Z,0.80
2023-03-05T00:32:49.421Z,1.33
2023-03-05T00:35:16.118Z,0.90
2023-03-05T00:37:42.759Z,1.13
2023-03-05T00:40:10.487Z,1.15
2023-03-05T00:42:38.871Z,1.05
2023-03-05T00:45:07.134Z,1.20
2023-03-05T00:47:34.634Z,1.30
2023-03-05T00:50:01.650Z,0.80
2023-03-05T00:52:28.537Z,0.73
2023-03-05T00:54:55.191Z,0.70
2023-03-05T00:57:22.099Z,0.32
2023-03-05T00:59:48.866Z,0.40
2023-03-05T01:02:15.720Z,0.40
2023-03-05T01:04:45.878Z,0.50
2023-03-05T01:07:12.743Z,0.70
2023-03-05T01:09:39.612Z,0.47
2023-03-05T01:12:06.711Z,0.60
2023-03-05T01:14:34.714Z,0.40
2023-03-05T01:17:01.486Z,0.90
2023-03-05T01:19:30.833Z,0.47
2023-03-05T01:21:57.603Z,0.88
2023-03-05T01:24:24.340Z,0.60
2023-03-05T01:26:51.681Z,0.60
2023-03-05T01:29:18.404Z,0.80
2023-03-05T01:31:45.455Z,0.85
2023-03-05T01:34:12.166Z,0.60
2023-03-05T01:36:41.457Z,0.77
2023-03-05T01:39:11.107Z,0.40
2023-03-05T01:41:37.720Z,1.23
2023-03-05T01:44:04.920Z,0.40
2023-03-05T01:46:38.903Z,0.80
2023-03-05T01:49:14.323Z,0.70
2023-03-05T01:52:17.832Z,0.80
2023-03-05T01:54:59.718Z,0.50
2023-03-05T01:57:32.846Z,0.85
2023-03-05T02:00:04.464Z,0.40
2023-03-05T02:02:40.537Z,0.73
2023-03-05T02:05:10.934Z,0.85
2023-03-05T02:07:40.167Z,1.00
2023-03-05T02:10:19.145Z,0.85
2023-03-05T02:12:48.172Z,0.68
2023-03-05T02:15:15.834Z,0.60
2023-03-05T02:17:42.676Z,0.80
2023-03-05T02:20:14.379Z,0.70
2023-03-05T02:22:41.091Z,0.57
2023-03-05T02:25:19.752Z,0.70
2023-03-05T02:27:57.345Z,0.80
2023-03-05T02:30:24.886Z,0.70
2023-03-05T02:32:51.720Z,1.10
2023-03-05T02:35:20.267Z,1.10
2023-03-05T02:37:47.090Z,0.93
2023-03-05T02:40:14.689Z,0.90
2023-03-05T02:42:42.673Z,0.70
2023-03-05T02:45:11.836Z,0.93
2023-03-05T02:47:39.075Z,0.80
2023-03-05T02:50:08.604Z,0.75
2023-03-05T02:52:36.536Z,0.50
2023-03-05T02:55:07.124Z,0.95
2023-03-05T02:57:37.327Z,0.80
2023-03-05T03:00:05.931Z,0.80
2023-03-05T03:02:32.732Z,1.58
2023-03-05T03:04:59.272Z,0.83
2023-03-05T03:07:26.061Z,0.68
2023-03-05T03:09:52.886Z,0.80
2023-03-05T03:12:19.508Z,0.50
2023-03-05T03:14:46.174Z,0.70
2023-03-05T03:17:16.832Z,0.50
2023-03-05T03:19:44.259Z,0.70
2023-03-05T03:22:13.284Z,0.70
2023-03-05T03:24:41.361Z,0.80
2023-03-05T03:27:08.405Z,0.93
2023-03-05T03:29:35.334Z,0.57
2023-03-05T03:32:02.118Z,0.60
2023-03-05T03:34:28.798Z,0.68
2023-03-05T03:36:55.561Z,0.93
2023-03-05T03:39:22.622Z,0.95
2023-03-05T03:41:53.093Z,0.80
2023-03-05T03:44:21.272Z,0.80
2023-03-05T03:46:49.633Z,0.47
2023-03-05T03:49:20.098Z,0.55
2023-03-05T03:51:48.064Z,0.95
2023-03-05T03:54:16.258Z,0.73
2023-03-05T03:56:43.173Z,1.00
2023-03-05T03:59:10.013Z,0.90
2023-03-05T04:01:37.109Z,0.98
2023-03-05T04:04:05.063Z,1.00
2023-03-05T04:06:32.424Z,0.80
2023-03-05T04:08:59.268Z,1.08
2023-03-05T04:11:25.989Z,1.20
2023-03-05T04:13:52.964Z,1.27
2023-03-05T04:16:20.744Z,0.65
2023-03-05T04:18:47.725Z,0.83
2023-03-05T04:21:14.508Z,0.90
2023-03-05T04:23:41.149Z,1.08
2023-03-05T04:26:07.837Z,1.05
2023-03-05T04:28:34.499Z,1.35
2023-03-05T04:31:01.256Z,0.87
2023-03-05T04:33:28.081Z,1.30
2023-03-05T04:35:54.926Z,1.67
2023-03-05T04:38:21.715Z,1.38
2023-03-05T04:40:48.607Z,1.10
2023-03-05T04:43:15.255Z,1.90
2023-03-05T04:45:43.750Z,1.45
2023-03-05T04:48:11.834Z,1.27
2023-03-05T04:50:38.897Z,1.52
2023-03-05T04:53:06.574Z,1.00
2023-03-05T04:55:33.480Z,1.10
2023-03-05T04:58:00.239Z,1.30
2023-03-05T05:00:30.510Z,0.85
2023-03-05T05:02:57.370Z,1.15
2023-03-05T05:05:26.267Z,1.08
2023-03-05T05:07:57.924Z,1.23
2023-03-05T05:10:25.672Z,1.38
2023-03-05T05:12:54.826Z,0.88
2023-03-05T05:15:21.711Z,1.52
2023-03-05T05:17:48.405Z,1.35
2023-03-05T05:20:16.803Z,1.10
2023-03-05T05:22:44.309Z,1.80
2023-03-05T05:25:11.892Z,1.50
2023-03-05T05:27:40.406Z,1.42
2023-03-05T05:30:07.881Z,1.40
2023-03-05T05:32:35.069Z,1.20
2023-03-05T05:35:02.065Z,1.80
2023-03-05T05:37:30.168Z,1.52
2023-03-05T05:39:57.010Z,2.13
2023-03-05T05:42:24.728Z,1.90
2023-03-05T05:44:51.375Z,2.07
2023-03-05T05:47:19.038Z,1.80
2023-03-05T05:49:45.908Z,2.10
2023-03-05T05:52:13.366Z,1.60
2023-03-05T05:54:40.356Z,1.70
2023-03-05T05:57:07.517Z,1.80
2023-03-05T05:59:34.587Z,1.75
2023-03-05T06:02:01.270Z,1.55
2023-03-05T06:04:28.001Z,1.77
2023-03-05T06:06:54.899Z,2.08
2023-03-05T06:09:21.801Z,1.97
2023-03-05T06:11:48.543Z,1.92
2023-03-05T06:14:15.372Z,1.50
2023-03-05T06:16:42.299Z,1.52
2023-03-05T06:19:14.564Z,2.00
2023-03-05T06:21:41.598Z,1.50
2023-03-05T06:24:08.577Z,1.70
2023-03-05T06:26:35.320Z,1.55
2023-03-05T06:29:02.427Z,2.13
2023-03-05T06:31:30.013Z,1.70
2023-03-05T06:34:03.597Z,2.10
2023-03-05T06:36:30.945Z,2.13
2023-03-05T06:38:59.038Z,1.90
2023-03-05T06:41:29.026Z,1.45
2023-03-05T06:43:56.137Z,1.60
2023-03-05T06:46:29.143Z,1.30
2023-03-05T06:48:57.975Z,1.70
2023-03-05T06:51:27.839Z,1.45
2023-03-05T06:53:56.146Z,1.30
2023-03-05T06:56:23.508Z,1.17
2023-03-05T06:58:51.693Z,1.60
2023-03-05T07:01:19.993Z,1.42
2023-03-05T07:03:50.122Z,1.33
2023-03-05T07:06:17.113Z,1.17
2023-03-05T07:08:47.157Z,1.73
2023-03-05T07:11:16.406Z,1.63
2023-03-05T07:13:43.957Z,1.40
2023-03-05T07:16:14.819Z,1.70
2023-03-05T07:18:41.548Z,1.70
2023-03-05T07:21:09.286Z,2.13
2023-03-05T07:23:36.659Z,1.60
2023-03-05T07:26:05.904Z,2.35
2023-03-05T07:28:33.948Z,2.50
2023-03-05T07:31:06.612Z,2.30
2023-03-05T07:33:35.454Z,2.60
2023-03-05T07:36:02.628Z,2.10
2023-03-05T07:38:29.589Z,2.13
2023-03-05T07:40:56.381Z,1.95
2023-03-05T07:43:23.188Z,1.90
2023-03-05T07:45:50.058Z,1.70
2023-03-05T07:48:21.060Z,1.80
2023-03-05T07:50:49.058Z,2.10
2023-03-05T07:53:16.011Z,1.90
2023-03-05T07:55:45.089Z,1.70
2023-03-05T07:58:13.032Z,2.40
2023-03-05T08:00:40.809Z,2.30
2023-03-05T08:03:07.789Z,2.20
2023-03-05T08:05:34.729Z,2.30
2023-03-05T08:08:01.644Z,1.77
2023-03-05T08:10:28.538Z,2.20
2023-03-05T08:12:55.337Z,2.07
2023-03-05T08:15:22.167Z,2.30
2023-03-05T08:17:48.982Z,2.05
2023-03-05T08:20:16.038Z,2.13
2023-03-05T08:22:42.851Z,2.00
2023-03-05T08:25:11.101Z,2.07
2023-03-05T08:27:45.526Z,1.73
2023-03-05T08:30:18.495Z,2.45
2023-03-05T08:32:45.141Z,1.73
2023-03-05T08:35:12.158Z,1.98
2023-03-05T08:37:39.229Z,2.97
2023-03-05T08:40:06.630Z,2.17
2023-03-05T08:42:33.320Z,1.80
2023-03-05T08:45:00.015Z,2.05
2023-03-05T08:47:27.588Z,2.10
2023-03-05T08:49:55.871Z,1.80
2023-03-05T08:52:23.171Z,1.48
2023-03-05T08:54:49.992Z,1.20
2023-03-05T08:57:16.843Z,1.42
2023-03-05T08:59:43.908Z,1.48
2023-03-05T09:02:13.094Z,1.60
2023-03-05T09:04:40.352Z,1.20
2023-03-05T09:07:09.426Z,1.20
2023-03-05T09:09:37.063Z,1.10
2023-03-05T09:12:04.150Z,1.13
2023-03-05T09:14:30.835Z,1.17
2023-03-05T09:16:58.200Z,0.73
2023-03-05T09:19:25.589Z,0.80
2023-03-05T09:21:52.677Z,1.02
2023-03-05T09:24:20.307Z,0.70
2023-03-05T09:26:47.636Z,0.87
2023-03-05T09:29:14.648Z,0.93
2023-03-05T09:31:41.524Z,0.95
2023-03-05T09:34:09.512Z,0.60
2023-03-05T09:36:36.444Z,0.55
2023-03-05T09:39:04.738Z,0.60
2023-03-05T09:41:50.253Z,0.65
2023-03-05T09:44:35.645Z,0.40
2023-03-05T09:47:23.360Z,0.70
2023-03-05T09:50:10.989Z,0.45
2023-03-05T09:52:53.955Z,0.50
2023-03-05T09:55:25.234Z,0.40
2023-03-05T09:57:56.706Z,0.40
2023-03-05T10:00:41.046Z,0.30
2023-03-05T10:03:19.890Z,0.50
2023-03-05T10:05:58.504Z,0.60
2023-03-05T10:08:31.881Z,0.60
2023-03-05T10:11:02.148Z,0.40
2023-03-05T10:13:39.351Z,0.43
2023-03-05T10:16:40.217Z,0.40
2023-03-05T10:19:48.384Z,0.20
2023-03-05T10:22:21.087Z,0.40
2023-03-05T10:25:00.971Z,0.60
2023-03-05T10:27:47.063Z,0.60
2023-03-05T10:30:49.104Z,0.40
2023-03-05T10:33:33.636Z,0.27
2023-03-05T10:36:12.300Z,0.45
2023-03-05T10:39:10.290Z,0.57
2023-03-05T10:41:56.393Z,0.38
2023-03-05T10:44:36.465Z,0.30
2023-03-05T10:47:11.438Z,0.23
2023-03-05T10:49:50.325Z,0.30
2023-03-05T10:52:29.287Z,0.80
2023-03-05T10:54:55.968Z,0.20
2023-03-05T10:57:27.957Z,0.20
2023-03-05T11:00:13.513Z,0.30
2023-03-05T11:03:12.562Z,0.17
2023-03-05T11:05:47.095Z,0.00
2023-03-05T11:08:19.872Z,0.10
2023-03-05T11:10:46.595Z,0.20
2023-03-05T11:13:25.534Z,0.10
2023-03-05T11:16:01.623Z,0.00
2023-03-05T11:18:34.363Z,0.10
2023-03-05T11:21:12.792Z,0.00
2023-03-05T11:23:39.639Z,0.10
2023-03-05T11:26:12.496Z,0.20
2023-03-05T11:29:00.395Z,0.05
2023-03-05T11:31:30.984Z,0.10
2023-03-05T11:34:01.336Z,0.10
2023-03-05T11:36:33.524Z,0.10
2023-03-05T11:39:09.253Z,0.10
2023-03-05T11:41:40.272Z,0.10
2023-03-05T11:44:16.525Z,0.10
2023-03-05T11:46:49.762Z,0.10
2023-03-05T11:49:23.279Z,0.10
2023-03-05T11:52:00.713Z,0.70
2023-03-05T11:54:33.637Z,0.10
2023-03-05T11:57:02.649Z,0.10
2023-03-05T11:59:35.429Z,0.10
2023-03-05T12:02:03.825Z,0.30
2023-03-05T12:04:33.162Z,0.10
2023-03-05T12:07:04.640Z,0.10
2023-03-05T12:09:43.462Z,0.10
2023-03-05T12:12:36.114Z,0.10
2023-03-05T12:15:12.075Z,0.30
2023-03-05T12:18:02.458Z,0.10
2023-03-05T12:21:15.160Z,0.20
2023-03-05T12:23:53.765Z,0.10
2023-03-05T12:26:56.424Z,0.85
2023-03-05T12:29:30.772Z,0.20
2023-03-05T12:31:58.962Z,0.30
2023-03-05T12:34:41.059Z,0.20
2023-03-05T12:37:13.996Z,0.30
2023-03-05T12:39:40.812Z,0.20
2023-03-05T12:42:34.139Z,0.30
2023-03-05T12:45:10.134Z,0.20
2023-03-05T12:47:40.330Z,0.20
2023-03-05T12:50:29.370Z,0.22
2023-03-05T12:53:15.506Z,0.22
2023-03-05T12:55:48.296Z,0.32
2023-03-05T12:58:48.073Z,0.30
2023-03-05T13:01:18.919Z,0.50
2023-03-05T13:03:54.727Z,0.30
2023-03-05T13:06:34.311Z,0.20
2023-03-05T13:09:02.215Z,0.20
2023-03-05T13:11:34.375Z,0.23
2023-03-05T13:14:02.797Z,0.20
2023-03-05T13:16:38.973Z,0.13
2023-03-05T13:19:16.437Z,0.30
2023-03-05T13:21:45.523Z,0.38
2023-03-05T13:24:17.917Z,0.20
2023-03-05T13:27:21.053Z,0.40
2023-03-05T13:29:52.630Z,0.20
2023-03-05T13:32:32.290Z,0.20
2023-03-05T13:35:00.993Z,0.60
2023-03-05T13:37:33.135Z,0.40
2023-03-05T13:40:14.732Z,0.30
2023-03-05T13:42:41.471Z,0.30
2023-03-05T13:45:29.629Z,0.32
2023-03-05T13:48:01.821Z,0.20
2023-03-05T13:50:37.542Z,0.30
2023-03-05T13:53:19.201Z,0.30
2023-03-05T13:55:48.009Z,0.15
2023-03-05T13:58:52.613Z,0.20
2023-03-05T14:01:31.827Z,0.30
2023-03-05T14:04:20.550Z,0.23
2023-03-05T14:07:08.411Z,0.30
2023-03-05T14:09:41.300Z,0.30
2023-03-05T14:12:22.519Z,0.35
2023-03-05T14:14:49.703Z,0.35
2023-03-05T14:17:36.156Z,0.40
2023-03-05T14:20:10.289Z,0.77
2023-03-05T14:22:43.345Z,0.40
2023-03-05T14:25:38.774Z,0.22
2023-03-05T14:28:18.430Z,0.30
2023-03-05T14:30:47.515Z,0.20
2023-03-05T14:33:15.214Z,0.20
2023-03-05T14:35:49.544Z,0.20
2023-03-05T14:38:31.807Z,0.10
2023-03-05T14:40:58.830Z,0.68
2023-03-05T14:43:25.772Z,0.30
2023-03-05T14:45:52.771Z,0.10
2023-03-05T14:48:19.677Z,0.30
2023-03-05T14:50:53.284Z,0.20
2023-03-05T14:53:25.903Z,0.10
2023-03-05T14:55:56.935Z,0.40
2023-03-05T14:58:29.423Z,0.30
2023-03-05T15:00:57.137Z,0.20
2023-03-05T15:03:25.483Z,0.20
2023-03-05T15:05:58.864Z,0.20
2023-03-05T15:08:33.450Z,0.50
2023-03-05T15:11:00.856Z,0.20
2023-03-05T15:13:32.014Z,0.10
2023-03-05T15:15:59.408Z,0.20
2023-03-05T15:18:26.538Z,0.30
2023-03-05T15:20:59.343Z,0.20
2023-03-05T15:23:28.366Z,0.20
2023-03-05T15:25:57.702Z,0.20
2023-03-05T15:28:24.605Z,0.10
2023-03-05T15:30:53.043Z,0.20
2023-03-05T15:33:19.864Z,0.20
2023-03-05T15:35:49.225Z,0.15
2023-03-05T15:38:16.426Z,0.32
2023-03-05T15:40:44.548Z,0.10
2023-03-05T15:43:11.522Z,0.28
2023-03-05T15:45:41.568Z,0.27
2023-03-05T15:48:08.971Z,0.38
2023-03-05T15:50:36.064Z,0.50
2023-03-05T15:53:02.995Z,0.20
2023-03-05T15:55:29.751Z,0.22
2023-03-05T15:57:56.541Z,0.20
2023-03-05T16:00:28.442Z,0.38
2023-03-05T16:02:55.492Z,0.30
2023-03-05T16:05:22.411Z,0.30
2023-03-05T16:07:51.946Z,0.30
2023-03-05T16:10:22.867Z,0.50
2023-03-05T16:12:55.351Z,0.70
2023-03-05T16:15:23.133Z,0.45
2023-03-05T16:17:56.397Z,0.75
2023-03-05T16:20:23.825Z,0.50
2023-03-05T16:22:50.983Z,0.30
2023-03-05T16:25:18.262Z,0.40
2023-03-05T16:27:47.724Z,0.65
2023-03-05T16:30:15.987Z,0.88
2023-03-05T16:32:43.612Z,0.65
2023-03-05T16:35:12.520Z,0.70
2023-03-05T16:37:40.276Z,1.02
2023-03-05T16:40:13.362Z,1.05
2023-03-05T16:42:40.249Z,1.67
2023-03-05T16:45:08.892Z,0.70
2023-03-05T16:47:35.972Z,0.80
2023-03-05T16:50:03.116Z,1.50
2023-03-05T16:52:30.006Z,7.95
2023-03-05T16:54:57.013Z,2.65
2023-03-05T16:57:26.032Z,2.60
2023-03-05T16:59:54.275Z,0.83
2023-03-05T17:02:21.270Z,0.73
2023-03-05T17:04:48.890Z,0.52
2023-03-05T17:07:15.776Z,0.60
2023-03-05T17:09:42.530Z,0.60
2023-03-05T17:12:09.204Z,0.63
2023-03-05T17:14:35.928Z,0.50
2023-03-05T17:17:02.577Z,0.40
2023-03-05T17:19:29.488Z,0.50
2023-03-05T17:21:56.282Z,1.48
2023-03-05T17:24:23.465Z,4.33
2023-03-05T17:26:50.547Z,4.25
2023-03-05T17:29:19.049Z,1.77
2023-03-05T17:31:46.809Z,0.50
2023-03-05T17:34:14.607Z,0.75
2023-03-05T17:36:45.312Z,0.60
2023-03-05T17:39:13.127Z,1.10
2023-03-05T17:41:39.795Z,1.67
2023-03-05T17:44:06.732Z,3.13
2023-03-05T17:46:33.418Z,1.75
2023-03-05T17:49:00.148Z,4.03
2023-03-05T17:51:26.827Z,1.65
2023-03-05T17:53:53.550Z,1.25
2023-03-05T17:56:24.146Z,1.42
2023-03-05T17:58:52.600Z,4.15
2023-03-05T18:01:31.100Z,3.13
2023-03-05T18:03:58.370Z,1.30
2023-03-05T18:06:25.621Z,0.90
2023-03-05T18:08:55.453Z,1.73
2023-03-05T18:11:22.218Z,2.05
2023-03-05T18:13:48.852Z,3.00
2023-03-05T18:16:17.100Z,3.55
2023-03-05T18:18:44.702Z,2.38
2023-03-05T18:21:18.267Z,8.35
2023-03-05T18:23:45.435Z,9.63
2023-03-05T18:26:12.513Z,20.57
2023-03-05T18:28:39.442Z,2.50
2023-03-05T18:31:06.355Z,2.42
2023-03-05T18:33:33.138Z,1.58
2023-03-05T18:36:00.110Z,2.63
2023-03-05T18:38:29.495Z,1.70
2023-03-05T18:40:57.286Z,2.53
2023-03-05T18:43:24.964Z,2.42
2023-03-05T18:45:53.678Z,1.92
2023-03-05T18:48:21.128Z,1.92
2023-03-05T18:50:52.588Z,1.90
2023-03-05T18:53:20.098Z,3.42
2023-03-05T18:55:46.812Z,2.15
2023-03-05T18:58:17.594Z,1.85
2023-03-05T19:00:46.954Z,1.58
2023-03-05T19:03:14.857Z,2.40
2023-03-05T19:05:42.311Z,2.83
2023-03-05T19:08:14.635Z,2.92
2023-03-05T19:10:41.578Z,2.30
2023-03-05T19:13:33.145Z,2.47
2023-03-05T19:16:02.433Z,2.67
2023-03-05T19:18:33.764Z,2.30
2023-03-05T19:21:00.490Z,2.70
2023-03-05T19:23:27.324Z,4.72
2023-03-05T19:25:54.053Z,3.25
2023-03-05T19:28:23.427Z,1.67
2023-03-05T19:30:50.299Z,2.60
2023-03-05T19:33:17.152Z,2.58
2023-03-05T19:35:43.892Z,1.77
2023-03-05T19:38:12.183Z,2.58
2023-03-05T19:40:41.520Z,2.10
2023-03-05T19:43:14.761Z,1.83
2023-03-05T19:45:44.232Z,1.60
2023-03-05T19:48:11.101Z,1.70
2023-03-05T19:50:40.731Z,1.92
2023-03-05T19:53:07.274Z,1.43
2023-03-05T19:55:34.099Z,1.48
2023-03-05T19:58:01.044Z,1.20
2023-03-05T20:00:27.738Z,1.20
2023-03-05T20:02:54.405Z,1.10
2023-03-05T20:05:23.211Z,0.80
2023-03-05T20:07:50.113Z,1.58
2023-03-05T20:10:18.410Z,1.15
2023-03-05T20:12:48.379Z,1.15
2023-03-05T20:15:15.340Z,1.17
2023-03-05T20:17:45.693Z,1.20
2023-03-05T20:20:17.996Z,1.10
2023-03-05T20:22:46.476Z,0.90
2023-03-05T20:25:16.375Z,1.10
2023-03-05T20:27:43.607Z,1.05
2023-03-05T20:30:12.950Z,1.40
2023-03-05T20:32:40.879Z,0.98
2023-03-05T20:35:08.645Z,0.70
2023-03-05T20:37:40.232Z,0.75
2023-03-05T20:40:08.703Z,0.98
2023-03-05T20:42:35.477Z,0.70
2023-03-05T20:45:02.128Z,0.98
2023-03-05T20:47:41.197Z,1.10
2023-03-05T20:50:11.636Z,1.50
2023-03-05T20:52:40.271Z,0.88
2023-03-05T20:55:08.356Z,1.03
2023-03-05T20:57:42.722Z,1.65
2023-03-05T21:00:10.094Z,1.23
2023-03-05T21:02:36.841Z,1.38
2023-03-05T21:05:03.897Z,2.10
2023-03-05T21:07:30.953Z,1.90
2023-03-05T21:09:57.715Z,2.60
2023-03-05T21:12:25.488Z,2.30
2023-03-05T21:14:52.231Z,2.30
2023-03-05T21:17:19.720Z,2.47
2023-03-05T21:19:46.354Z,2.33
2023-03-05T21:22:13.052Z,2.80
2023-03-05T21:25:02.038Z,2.65
2023-03-05T21:27:29.399Z,2.08
2023-03-05T21:29:56.144Z,1.80
2023-03-05T21:32:23.147Z,2.17
2023-03-05T21:34:55.255Z,2.80
2023-03-05T21:37:44.967Z,2.83
2023-03-05T21:40:50.054Z,2.67
2023-03-05T21:43:35.574Z,2.30
2023-03-05T21:46:15.991Z,2.30
2023-03-05T21:48:52.110Z,2.67
2023-03-05T21:51:21.529Z,2.22
2023-03-05T21:53:57.829Z,2.60
2023-03-05T21:56:28.462Z,3.03
2023-03-05T21:59:03.543Z,2.67
2023-03-05T22:01:34.470Z,2.90
2023-03-05T22:04:09.978Z,3.15
2023-03-05T22:06:36.955Z,2.83
2023-03-05T22:09:03.699Z,2.70
2023-03-05T22:11:30.448Z,2.80
2023-03-05T22:13:57.227Z,2.60
2023-03-05T22:16:33.676Z,2.75
2023-03-05T22:19:01.306Z,3.15
2023-03-05T22:21:34.103Z,2.95
2023-03-05T22:24:07.408Z,3.63
2023-03-05T22:26:44.066Z,3.47
2023-03-05T22:29:31.693Z,3.22
2023-03-05T22:32:05.348Z,2.83
2023-03-05T22:34:32.682Z,2.92
2023-03-05T22:37:05.161Z,2.93
2023-03-05T22:39:38.119Z,2.80
2023-03-05T22:42:05.956Z,3.28
2023-03-05T22:44:35.606Z,2.97
2023-03-05T22:47:08.194Z,2.92
2023-03-05T22:49:35.272Z,3.10
2023-03-05T22:52:06.185Z,2.67
2023-03-05T22:54:35.316Z,2.58
2023-03-05T22:57:02.226Z,2.42
2023-03-05T22:59:34.582Z,2.97
2023-03-05T23:02:08.345Z,2.70
2023-03-05T23:04:49.605Z,2.50
2023-03-05T23:07:25.931Z,2.40
2023-03-05T23:09:57.769Z,2.58
2023-03-05T23:12:27.381Z,2.70
2023-03-05T23:14:54.976Z,2.90
2023-03-05T23:17:22.390Z,3.10
2023-03-05T23:20:08.152Z,2.63
2023-03-05T23:22:39.330Z,3.30
2023-03-05T23:25:06.946Z,2.17
2023-03-05T23:27:33.606Z,2.70
2023-03-05T23:30:16.229Z,3.03
2023-03-05T23:32:47.552Z,3.08
2023-03-05T23:35:16.568Z,3.00
2023-03-05T23:37:43.414Z,2.70
2023-03-05T23:40:14.426Z,2.20
2023-03-05T23:42:41.884Z,2.42
2023-03-05T23:45:10.664Z,2.55
2023-03-05T23:47:41.485Z,3.13
2023-03-05T23:50:21.004Z,2.75
2023-03-05T23:52:49.312Z,2.40
2023-03-05T23:55:25.595Z,2.47
2023-03-05T23:57:59.195Z,1.83
